CCQ3 weather

Debert Airport
Debert, Nova Scotia, Canada

Public forecast

Using degrees Celsius for public forecast. Weather courtesy of forecast.io.

Closest aviation weather report (METAR) to Debert Airport

Closest report is Halifax / Stanfield International Airport, 32.4 nm (59.9 km) S. Retrieved 2020/02/25 11:00 UTC (54 minutes ago):

CYHZ 251100Z 16005KT 3/8SM R23/4500FT/D R14/3000V6000FT/D FZFG BKN001 BKN210 M01/M01 A2996 RMK SF6CI1 SLP154

Closest aviation forecast (TAF) to Debert Airport

Closest forecast is Halifax / Stanfield International Airport, 32.4 nm (59.9 km) S. Retrieved 2020/02/25 09:42 UTC (2 hours ago):

TAF TAF CYHZ 250838Z 2509/2606 22010KT 6SM BR FEW001 BKN210 TEMPO 2509/2514 1/2SM FZFG VV001 FM251400 20008KT 6SM BR SCT008 TEMPO 2514/2516 2SM BR BKN008 FM251600 21005KT P6SM OVC100 BECMG 2516/2518 19010KT FM252200 16005KT 6SM BR FEW003 OVC060 PROB40 2522/2606 3/4SM BR OVC003 RMK NXT FCST BY 251200Z